Vossburg, MS (39366)

4:11 AM CST on March 03, 2015 (GMT -0600)
South Central Regional Medical Center, Laurel, MS | Change Station
CLOSE
Current Station
Personal Weather Station
Location: Laurel, MS
Elevation: 259 ft
Nearby Weather Stations
Active Advisory: Dense Fog Advisory

Elev 259 ft 31.69 °N, 89.14 °W | Updated 5 seconds ago

Fog
Fog
59.8 °F
Feels Like 59.8 °F
N
1.0
Wind Variable Wind from NNW
Gusts 6.0 mph

Today
High -- | Low -- °F
--% Chance of Precip.
Yesterday
High -- | Low -- °F
Precip. -- in
6:21 AM 5:55 PM
Waxing Gibbous, 95% visible
Pressure 30.14 in
Visibility 0.5 miles
Clouds
Dew Point 59 °F
Humidity 97%
Rainfall 0.00 in
Snow Depth Not available.
UV Not available.
Pollen 3.40 out of 12
Air Quality Not available.
Flu Activity Not available.
METAR KMEI 030958Z AUTO 00000KT 1/2SM R01/2000V2400FT FG VV003 12/11 A3014 RMK AO2 SLP204 T01170111

More Conditions Fewer Conditions

Pressure 30.14 in
Visibility 0.5 miles
Clouds
Dew Point 59 °F
Humidity 97%
Rainfall 0.00 in
Snow Depth Not available.
UV Not available.
Pollen 3.40 out of 12
Air Quality Not available.
Flu Activity Not available.
METAR KMEI 030958Z AUTO 00000KT 1/2SM R01/2000V2400FT FG VV003 12/11 A3014 RMK AO2 SLP204 T01170111

More Conditions Fewer Conditions

10-Day Weather Forecast

Almanac

Astronomy

Mar. 03, 2015 Rise Set
Actual Time
Civil Twilight
Nautical Twilight
Astronomical Twilight
Moon
Length of Visible Light
Length of Day
Tomorrow will be .
, % of the Moon is Illuminated

Today's Extremes

State Highs State Lows

Community

WunderPhotos

Upload Photos

1,802,075 photos uploaded!

WunderBlogs® & News

Nearby

Air Quality

  Air Quality AQ Index Pollutant
Not available.

Snow Depth

Station Depth Elevation

Earthquake Activity

City Distance Mag. Time & Date
Minimum magnitude displayed is 2.5.

Coastal Water Temperatures

Place Temperature

Nearby Weather Stations

Dense Fog Advisory
Statement as of 9:03 PM CST on March 02, 2015

... Dense fog advisory remains in effect until 9 am CST Tuesday...

A dense fog advisory remains in effect until 9 am CST Tuesday.

* Visibility... less than one-quarter of a mile

* impacts... reduced visibility will create hazardous travel.
Local fluctuations in visibility can be expected... .so
motorists may encounter rapid visibility reductions.

Precautionary/preparedness actions...

A dense fog advisory means visibilities will frequently be
reduced to less than one quarter mile. If driving... slow down...
use your headlights... and leave plenty of distance ahead of you.